sensor_id;sensor_type;location;lat;lon;timestamp;P1;durP1;ratioP1;P2;durP2;ratioP2
10900;SDS011;5503;53.208;10.392;2022-11-20T00:01:30;12.20;;;6.82;;
10900;SDS011;5503;53.208;10.392;2022-11-20T00:03:58;11.67;;;6.40;;
10900;SDS011;5503;53.208;10.392;2022-11-20T00:06:26;13.30;;;6.35;;
10900;SDS011;5503;53.208;10.392;2022-11-20T00:08:54;21.70;;;12.80;;
10900;SDS011;5503;53.208;10.392;2022-11-20T00:11:23;16.58;;;8.27;;
10900;SDS011;5503;53.208;10.392;2022-11-20T00:13:52;11.60;;;6.70;;
10900;SDS011;5503;53.208;10.392;2022-11-20T00:16:22;13.13;;;7.40;;
10900;SDS011;5503;53.208;10.392;2022-11-20T00:18:50;14.32;;;7.85;;
10900;SDS011;5503;53.208;10.392;2022-11-20T00:21:18;14.32;;;7.38;;
10900;SDS011;5503;53.208;10.392;2022-11-20T00:23:46;13.95;;;7.85;;
10900;SDS011;5503;53.208;10.392;2022-11-20T00:26:14;13.82;;;7.72;;
10900;SDS011;5503;53.208;10.392;2022-11-20T00:28:42;15.03;;;7.57;;
10900;SDS011;5503;53.208;10.392;2022-11-20T00:31:11;14.52;;;7.60;;
10900;SDS011;5503;53.208;10.392;2022-11-20T00:33:41;13.27;;;7.47;;
10900;SDS011;5503;53.208;10.392;2022-11-20T00:36:09;13.43;;;6.88;;
10900;SDS011;5503;53.208;10.392;2022-11-20T00:38:37;21.98;;;11.40;;
10900;SDS011;5503;53.208;10.392;2022-11-20T00:41:05;15.30;;;9.03;;
10900;SDS011;5503;53.208;10.392;2022-11-20T00:43:33;17.65;;;7.88;;
10900;SDS011;5503;53.208;10.392;2022-11-20T00:46:01;15.15;;;7.93;;
10900;SDS011;5503;53.208;10.392;2022-11-20T00:48:30;14.48;;;7.82;;
10900;SDS011;5503;53.208;10.392;2022-11-20T00:50:59;14.07;;;7.57;;
10900;SDS011;5503;53.208;10.392;2022-11-20T00:53:26;16.73;;;7.50;;
10900;SDS011;5503;53.208;10.392;2022-11-20T00:55:53;14.32;;;7.75;;
10900;SDS011;5503;53.208;10.392;2022-11-20T00:58:21;13.07;;;7.70;;
10900;SDS011;5503;53.208;10.392;2022-11-20T01:00:49;13.38;;;7.07;;
10900;SDS011;5503;53.208;10.392;2022-11-20T01:03:16;13.10;;;7.47;;
10900;SDS011;5503;53.208;10.392;2022-11-20T01:05:43;15.47;;;7.87;;
10900;SDS011;5503;53.208;10.392;2022-11-20T01:08:12;15.38;;;8.15;;
10900;SDS011;5503;53.208;10.392;2022-11-20T01:10:39;14.38;;;7.97;;
10900;SDS011;5503;53.208;10.392;2022-11-20T01:13:06;14.27;;;7.57;;
10900;SDS011;5503;53.208;10.392;2022-11-20T01:15:51;11.52;;;6.85;;
10900;SDS011;5503;53.208;10.392;2022-11-20T01:18:18;13.73;;;7.10;;
10900;SDS011;5503;53.208;10.392;2022-11-20T01:20:46;14.85;;;7.30;;
10900;SDS011;5503;53.208;10.392;2022-11-20T01:23:14;15.32;;;7.13;;
10900;SDS011;5503;53.208;10.392;2022-11-20T01:25:41;14.52;;;7.57;;
10900;SDS011;5503;53.208;10.392;2022-11-20T01:28:08;15.02;;;7.72;;
10900;SDS011;5503;53.208;10.392;2022-11-20T01:30:35;14.87;;;7.77;;
10900;SDS011;5503;53.208;10.392;2022-11-20T01:33:03;14.00;;;7.45;;
10900;SDS011;5503;53.208;10.392;2022-11-20T01:35:30;11.57;;;6.40;;
10900;SDS011;5503;53.208;10.392;2022-11-20T01:37:57;14.95;;;7.95;;
10900;SDS011;5503;53.208;10.392;2022-11-20T01:40:26;13.10;;;7.70;;
10900;SDS011;5503;53.208;10.392;2022-11-20T01:42:55;16.20;;;7.50;;
10900;SDS011;5503;53.208;10.392;2022-11-20T01:45:58;14.32;;;6.47;;
10900;SDS011;5503;53.208;10.392;2022-11-20T01:48:33;14.45;;;6.97;;
10900;SDS011;5503;53.208;10.392;2022-11-20T01:51:04;12.18;;;6.68;;
10900;SDS011;5503;53.208;10.392;2022-11-20T01:53:36;12.73;;;6.90;;
10900;SDS011;5503;53.208;10.392;2022-11-20T01:56:05;13.27;;;6.77;;
10900;SDS011;5503;53.208;10.392;2022-11-20T01:58:36;12.52;;;6.70;;
10900;SDS011;5503;53.208;10.392;2022-11-20T02:01:06;16.45;;;7.13;;
10900;SDS011;5503;53.208;10.392;2022-11-20T02:03:33;11.25;;;6.45;;
10900;SDS011;5503;53.208;10.392;2022-11-20T02:06:02;13.05;;;7.05;;
10900;SDS011;5503;53.208;10.392;2022-11-20T02:08:35;12.20;;;6.63;;
10900;SDS011;5503;53.208;10.392;2022-11-20T02:13:37;14.80;;;7.25;;
10900;SDS011;5503;53.208;10.392;2022-11-20T02:16:11;11.82;;;6.95;;
10900;SDS011;5503;53.208;10.392;2022-11-20T02:18:40;13.80;;;6.57;;
10900;SDS011;5503;53.208;10.392;2022-11-20T02:21:09;11.80;;;6.20;;
10900;SDS011;5503;53.208;10.392;2022-11-20T02:23:58;16.08;;;6.78;;
10900;SDS011;5503;53.208;10.392;2022-11-20T02:26:28;11.18;;;6.35;;
10900;SDS011;5503;53.208;10.392;2022-11-20T02:28:56;10.57;;;6.63;;
10900;SDS011;5503;53.208;10.392;2022-11-20T02:31:25;12.60;;;7.00;;
10900;SDS011;5503;53.208;10.392;2022-11-20T02:33:56;11.87;;;6.57;;
10900;SDS011;5503;53.208;10.392;2022-11-20T02:36:24;14.88;;;6.10;;
10900;SDS011;5503;53.208;10.392;2022-11-20T02:38:53;12.35;;;6.95;;
10900;SDS011;5503;53.208;10.392;2022-11-20T02:41:22;10.93;;;6.25;;
10900;SDS011;5503;53.208;10.392;2022-11-20T02:43:57;11.48;;;6.40;;
10900;SDS011;5503;53.208;10.392;2022-11-20T02:46:24;12.57;;;6.77;;
10900;SDS011;5503;53.208;10.392;2022-11-20T02:48:52;12.63;;;6.68;;
10900;SDS011;5503;53.208;10.392;2022-11-20T02:51:19;13.82;;;6.32;;
10900;SDS011;5503;53.208;10.392;2022-11-20T02:53:46;13.10;;;6.43;;
10900;SDS011;5503;53.208;10.392;2022-11-20T02:56:14;10.60;;;6.07;;
10900;SDS011;5503;53.208;10.392;2022-11-20T02:58:43;11.93;;;6.57;;
10900;SDS011;5503;53.208;10.392;2022-11-20T03:01:10;12.93;;;6.03;;
10900;SDS011;5503;53.208;10.392;2022-11-20T03:03:37;11.13;;;6.25;;
10900;SDS011;5503;53.208;10.392;2022-11-20T03:06:05;12.88;;;6.72;;
10900;SDS011;5503;53.208;10.392;2022-11-20T03:08:32;13.85;;;6.97;;
10900;SDS011;5503;53.208;10.392;2022-11-20T03:11:02;13.50;;;6.10;;
10900;SDS011;5503;53.208;10.392;2022-11-20T03:13:30;11.70;;;6.60;;
10900;SDS011;5503;53.208;10.392;2022-11-20T03:16:03;13.77;;;6.72;;
10900;SDS011;5503;53.208;10.392;2022-11-20T03:18:32;11.45;;;6.18;;
10900;SDS011;5503;53.208;10.392;2022-11-20T03:20:59;11.57;;;7.05;;
10900;SDS011;5503;53.208;10.392;2022-11-20T03:23:28;12.77;;;6.70;;
10900;SDS011;5503;53.208;10.392;2022-11-20T03:25:56;15.30;;;6.40;;
10900;SDS011;5503;53.208;10.392;2022-11-20T03:28:23;10.93;;;6.10;;
10900;SDS011;5503;53.208;10.392;2022-11-20T03:30:50;13.30;;;6.88;;
10900;SDS011;5503;53.208;10.392;2022-11-20T03:33:19;13.13;;;6.82;;
10900;SDS011;5503;53.208;10.392;2022-11-20T03:35:46;13.30;;;6.40;;
10900;SDS011;5503;53.208;10.392;2022-11-20T03:38:13;15.23;;;7.95;;
10900;SDS011;5503;53.208;10.392;2022-11-20T03:40:41;12.98;;;7.30;;
10900;SDS011;5503;53.208;10.392;2022-11-20T03:43:09;11.55;;;6.22;;
10900;SDS011;5503;53.208;10.392;2022-11-20T03:45:36;11.15;;;6.28;;
10900;SDS011;5503;53.208;10.392;2022-11-20T03:48:03;11.70;;;5.73;;
10900;SDS011;5503;53.208;10.392;2022-11-20T03:50:32;10.93;;;6.40;;
10900;SDS011;5503;53.208;10.392;2022-11-20T03:52:59;14.50;;;6.03;;
10900;SDS011;5503;53.208;10.392;2022-11-20T03:55:26;10.52;;;6.13;;
10900;SDS011;5503;53.208;10.392;2022-11-20T03:57:54;11.85;;;5.93;;
10900;SDS011;5503;53.208;10.392;2022-11-20T04:00:21;10.93;;;5.90;;
10900;SDS011;5503;53.208;10.392;2022-11-20T04:02:48;10.15;;;5.88;;
10900;SDS011;5503;53.208;10.392;2022-11-20T04:05:16;10.45;;;6.10;;
10900;SDS011;5503;53.208;10.392;2022-11-20T04:07:44;11.95;;;5.82;;
10900;SDS011;5503;53.208;10.392;2022-11-20T04:10:11;10.65;;;5.63;;
10900;SDS011;5503;53.208;10.392;2022-11-20T04:12:39;11.83;;;6.00;;
10900;SDS011;5503;53.208;10.392;2022-11-20T04:15:06;10.32;;;5.88;;
10900;SDS011;5503;53.208;10.392;2022-11-20T04:17:34;13.50;;;6.13;;
10900;SDS011;5503;53.208;10.392;2022-11-20T04:20:01;11.27;;;5.75;;
10900;SDS011;5503;53.208;10.392;2022-11-20T04:22:29;11.50;;;5.85;;
10900;SDS011;5503;53.208;10.392;2022-11-20T04:24:57;11.00;;;5.97;;
10900;SDS011;5503;53.208;10.392;2022-11-20T04:27:25;12.38;;;6.07;;
10900;SDS011;5503;53.208;10.392;2022-11-20T04:29:52;11.23;;;5.75;;
10900;SDS011;5503;53.208;10.392;2022-11-20T04:32:19;14.02;;;5.68;;
10900;SDS011;5503;53.208;10.392;2022-11-20T04:34:46;13.40;;;6.30;;
10900;SDS011;5503;53.208;10.392;2022-11-20T04:37:14;10.53;;;5.77;;
10900;SDS011;5503;53.208;10.392;2022-11-20T04:39:41;11.05;;;5.72;;
10900;SDS011;5503;53.208;10.392;2022-11-20T04:42:10;11.40;;;6.03;;
10900;SDS011;5503;53.208;10.392;2022-11-20T04:44:56;11.80;;;6.38;;
10900;SDS011;5503;53.208;10.392;2022-11-20T04:47:23;14.73;;;6.40;;
10900;SDS011;5503;53.208;10.392;2022-11-20T04:49:51;12.83;;;6.30;;
10900;SDS011;5503;53.208;10.392;2022-11-20T04:52:18;12.60;;;6.53;;
10900;SDS011;5503;53.208;10.392;2022-11-20T04:54:45;11.75;;;6.70;;
10900;SDS011;5503;53.208;10.392;2022-11-20T04:57:15;13.52;;;6.43;;
10900;SDS011;5503;53.208;10.392;2022-11-20T04:59:42;15.25;;;6.70;;
10900;SDS011;5503;53.208;10.392;2022-11-20T05:02:09;13.00;;;6.77;;
10900;SDS011;5503;53.208;10.392;2022-11-20T05:04:36;15.20;;;6.78;;
10900;SDS011;5503;53.208;10.392;2022-11-20T05:07:04;13.20;;;7.78;;
10900;SDS011;5503;53.208;10.392;2022-11-20T05:09:31;14.93;;;7.45;;
10900;SDS011;5503;53.208;10.392;2022-11-20T05:11:58;15.43;;;7.78;;
10900;SDS011;5503;53.208;10.392;2022-11-20T05:14:27;10.93;;;6.50;;
10900;SDS011;5503;53.208;10.392;2022-11-20T05:16:54;13.75;;;7.13;;
10900;SDS011;5503;53.208;10.392;2022-11-20T05:19:21;16.38;;;7.95;;
10900;SDS011;5503;53.208;10.392;2022-11-20T05:21:48;16.13;;;7.85;;
10900;SDS011;5503;53.208;10.392;2022-11-20T05:24:16;14.57;;;8.32;;
10900;SDS011;5503;53.208;10.392;2022-11-20T05:26:43;13.03;;;6.90;;
10900;SDS011;5503;53.208;10.392;2022-11-20T05:29:11;15.02;;;8.13;;
10900;SDS011;5503;53.208;10.392;2022-11-20T05:31:41;15.73;;;8.23;;
10900;SDS011;5503;53.208;10.392;2022-11-20T05:34:08;14.52;;;7.35;;
10900;SDS011;5503;53.208;10.392;2022-11-20T05:36:35;16.80;;;8.38;;
10900;SDS011;5503;53.208;10.392;2022-11-20T05:39:03;16.03;;;8.00;;
10900;SDS011;5503;53.208;10.392;2022-11-20T05:41:30;13.70;;;7.85;;
10900;SDS011;5503;53.208;10.392;2022-11-20T05:43:57;14.73;;;8.38;;
10900;SDS011;5503;53.208;10.392;2022-11-20T05:46:25;19.98;;;9.18;;
10900;SDS011;5503;53.208;10.392;2022-11-20T05:48:53;16.13;;;9.43;;
10900;SDS011;5503;53.208;10.392;2022-11-20T05:51:20;18.83;;;8.93;;
10900;SDS011;5503;53.208;10.392;2022-11-20T05:53:48;16.90;;;9.30;;
10900;SDS011;5503;53.208;10.392;2022-11-20T05:56:16;15.40;;;8.00;;
10900;SDS011;5503;53.208;10.392;2022-11-20T05:58:45;19.55;;;9.55;;
10900;SDS011;5503;53.208;10.392;2022-11-20T06:01:13;17.00;;;9.32;;
10900;SDS011;5503;53.208;10.392;2022-11-20T06:03:43;20.43;;;9.13;;
10900;SDS011;5503;53.208;10.392;2022-11-20T06:06:14;23.55;;;9.75;;
10900;SDS011;5503;53.208;10.392;2022-11-20T06:08:41;20.15;;;9.30;;
10900;SDS011;5503;53.208;10.392;2022-11-20T06:11:09;17.13;;;9.40;;
10900;SDS011;5503;53.208;10.392;2022-11-20T06:13:38;19.13;;;9.68;;
10900;SDS011;5503;53.208;10.392;2022-11-20T06:16:06;19.90;;;9.73;;
10900;SDS011;5503;53.208;10.392;2022-11-20T06:18:33;18.67;;;9.93;;
10900;SDS011;5503;53.208;10.392;2022-11-20T06:21:01;18.10;;;9.85;;
10900;SDS011;5503;53.208;10.392;2022-11-20T06:23:33;25.60;;;10.00;;
10900;SDS011;5503;53.208;10.392;2022-11-20T06:26:01;19.17;;;10.65;;
10900;SDS011;5503;53.208;10.392;2022-11-20T06:28:29;18.40;;;9.00;;
10900;SDS011;5503;53.208;10.392;2022-11-20T06:30:56;20.15;;;10.68;;
10900;SDS011;5503;53.208;10.392;2022-11-20T06:33:23;20.10;;;10.23;;
10900;SDS011;5503;53.208;10.392;2022-11-20T06:35:51;18.13;;;10.35;;
10900;SDS011;5503;53.208;10.392;2022-11-20T06:38:18;19.92;;;11.02;;
10900;SDS011;5503;53.208;10.392;2022-11-20T06:40:47;19.97;;;10.23;;
10900;SDS011;5503;53.208;10.392;2022-11-20T06:43:14;20.17;;;10.82;;
10900;SDS011;5503;53.208;10.392;2022-11-20T06:45:41;21.25;;;10.60;;
10900;SDS011;5503;53.208;10.392;2022-11-20T06:48:09;20.75;;;11.00;;
10900;SDS011;5503;53.208;10.392;2022-11-20T06:50:36;19.80;;;10.40;;
10900;SDS011;5503;53.208;10.392;2022-11-20T06:53:04;21.13;;;10.93;;
10900;SDS011;5503;53.208;10.392;2022-11-20T06:55:31;19.35;;;10.85;;
10900;SDS011;5503;53.208;10.392;2022-11-20T06:58:00;19.27;;;10.35;;
10900;SDS011;5503;53.208;10.392;2022-11-20T07:00:27;21.48;;;9.98;;
10900;SDS011;5503;53.208;10.392;2022-11-20T07:02:54;23.25;;;11.25;;
10900;SDS011;5503;53.208;10.392;2022-11-20T07:05:21;22.40;;;9.90;;
10900;SDS011;5503;53.208;10.392;2022-11-20T07:07:49;19.95;;;11.02;;
10900;SDS011;5503;53.208;10.392;2022-11-20T07:10:16;21.85;;;11.40;;
10900;SDS011;5503;53.208;10.392;2022-11-20T07:12:48;22.60;;;10.98;;
10900;SDS011;5503;53.208;10.392;2022-11-20T07:15:17;19.40;;;10.45;;
10900;SDS011;5503;53.208;10.392;2022-11-20T07:17:45;21.23;;;11.40;;
10900;SDS011;5503;53.208;10.392;2022-11-20T07:20:12;23.45;;;10.85;;
10900;SDS011;5503;53.208;10.392;2022-11-20T07:22:40;18.70;;;10.70;;
10900;SDS011;5503;53.208;10.392;2022-11-20T07:25:08;25.67;;;10.88;;
10900;SDS011;5503;53.208;10.392;2022-11-20T07:27:35;20.27;;;10.60;;
10900;SDS011;5503;53.208;10.392;2022-11-20T07:30:03;22.57;;;10.20;;
10900;SDS011;5503;53.208;10.392;2022-11-20T07:32:33;20.98;;;10.60;;
10900;SDS011;5503;53.208;10.392;2022-11-20T07:35:00;23.17;;;10.85;;
10900;SDS011;5503;53.208;10.392;2022-11-20T07:37:27;20.98;;;10.88;;
10900;SDS011;5503;53.208;10.392;2022-11-20T07:39:54;24.23;;;11.93;;
10900;SDS011;5503;53.208;10.392;2022-11-20T07:42:22;25.33;;;11.33;;
10900;SDS011;5503;53.208;10.392;2022-11-20T07:44:49;21.63;;;9.75;;
10900;SDS011;5503;53.208;10.392;2022-11-20T07:47:16;19.42;;;10.30;;
10900;SDS011;5503;53.208;10.392;2022-11-20T07:49:45;22.27;;;10.90;;
10900;SDS011;5503;53.208;10.392;2022-11-20T07:52:12;22.15;;;10.98;;
10900;SDS011;5503;53.208;10.392;2022-11-20T07:54:39;18.57;;;10.67;;
10900;SDS011;5503;53.208;10.392;2022-11-20T07:57:07;19.20;;;9.77;;
10900;SDS011;5503;53.208;10.392;2022-11-20T07:59:34;19.95;;;10.75;;
10900;SDS011;5503;53.208;10.392;2022-11-20T08:02:01;21.60;;;10.85;;
10900;SDS011;5503;53.208;10.392;2022-11-20T08:04:29;20.75;;;10.73;;
10900;SDS011;5503;53.208;10.392;2022-11-20T08:06:58;23.30;;;11.53;;
10900;SDS011;5503;53.208;10.392;2022-11-20T08:09:25;21.92;;;10.60;;
10900;SDS011;5503;53.208;10.392;2022-11-20T08:11:53;20.58;;;10.98;;
10900;SDS011;5503;53.208;10.392;2022-11-20T08:14:42;20.10;;;10.40;;
10900;SDS011;5503;53.208;10.392;2022-11-20T08:17:10;20.67;;;10.30;;
10900;SDS011;5503;53.208;10.392;2022-11-20T08:19:37;19.73;;;9.50;;
10900;SDS011;5503;53.208;10.392;2022-11-20T08:22:06;21.83;;;11.38;;
10900;SDS011;5503;53.208;10.392;2022-11-20T08:24:33;21.10;;;11.38;;
10900;SDS011;5503;53.208;10.392;2022-11-20T08:27:00;22.50;;;11.73;;
10900;SDS011;5503;53.208;10.392;2022-11-20T08:29:27;26.30;;;12.05;;
10900;SDS011;5503;53.208;10.392;2022-11-20T08:31:55;23.33;;;11.27;;
10900;SDS011;5503;53.208;10.392;2022-11-20T08:34:22;22.00;;;10.73;;
10900;SDS011;5503;53.208;10.392;2022-11-20T08:36:49;22.40;;;11.23;;
10900;SDS011;5503;53.208;10.392;2022-11-20T08:39:18;21.38;;;10.25;;
10900;SDS011;5503;53.208;10.392;2022-11-20T08:41:45;22.00;;;11.15;;
10900;SDS011;5503;53.208;10.392;2022-11-20T08:44:12;20.57;;;10.53;;
10900;SDS011;5503;53.208;10.392;2022-11-20T08:46:40;46.05;;;22.58;;
10900;SDS011;5503;53.208;10.392;2022-11-20T08:49:09;28.77;;;16.30;;
10900;SDS011;5503;53.208;10.392;2022-11-20T08:51:37;22.70;;;11.55;;
10900;SDS011;5503;53.208;10.392;2022-11-20T08:54:05;20.67;;;10.52;;
10900;SDS011;5503;53.208;10.392;2022-11-20T08:56:34;21.80;;;10.47;;
10900;SDS011;5503;53.208;10.392;2022-11-20T08:59:02;25.75;;;10.73;;
10900;SDS011;5503;53.208;10.392;2022-11-20T09:01:29;21.83;;;10.85;;
10900;SDS011;5503;53.208;10.392;2022-11-20T09:03:56;20.80;;;10.88;;
10900;SDS011;5503;53.208;10.392;2022-11-20T09:06:25;23.92;;;11.25;;
10900;SDS011;5503;53.208;10.392;2022-11-20T09:08:52;18.53;;;9.57;;
10900;SDS011;5503;53.208;10.392;2022-11-20T09:11:22;19.98;;;9.98;;
10900;SDS011;5503;53.208;10.392;2022-11-20T09:13:51;20.25;;;9.48;;
10900;SDS011;5503;53.208;10.392;2022-11-20T09:16:18;19.65;;;9.57;;
10900;SDS011;5503;53.208;10.392;2022-11-20T09:18:45;22.73;;;10.35;;
10900;SDS011;5503;53.208;10.392;2022-11-20T09:21:13;25.53;;;10.40;;
10900;SDS011;5503;53.208;10.392;2022-11-20T09:23:40;17.83;;;9.90;;
10900;SDS011;5503;53.208;10.392;2022-11-20T09:26:10;21.38;;;9.65;;
10900;SDS011;5503;53.208;10.392;2022-11-20T09:28:38;20.33;;;9.75;;
10900;SDS011;5503;53.208;10.392;2022-11-20T09:31:07;23.92;;;11.85;;
10900;SDS011;5503;53.208;10.392;2022-11-20T09:33:35;20.90;;;11.27;;
10900;SDS011;5503;53.208;10.392;2022-11-20T09:36:02;17.67;;;9.20;;
10900;SDS011;5503;53.208;10.392;2022-11-20T09:38:30;18.17;;;8.88;;
10900;SDS011;5503;53.208;10.392;2022-11-20T09:40:58;11.85;;;5.70;;
10900;SDS011;5503;53.208;10.392;2022-11-20T09:43:46;11.02;;;5.60;;
10900;SDS011;5503;53.208;10.392;2022-11-20T09:46:27;12.50;;;7.37;;
10900;SDS011;5503;53.208;10.392;2022-11-20T09:49:06;14.57;;;8.43;;
10900;SDS011;5503;53.208;10.392;2022-11-20T09:51:45;13.05;;;7.30;;
10900;SDS011;5503;53.208;10.392;2022-11-20T09:54:20;14.23;;;6.80;;
10900;SDS011;5503;53.208;10.392;2022-11-20T09:56:53;13.88;;;6.10;;
10900;SDS011;5503;53.208;10.392;2022-11-20T09:59:35;13.90;;;7.77;;
10900;SDS011;5503;53.208;10.392;2022-11-20T10:04:55;13.45;;;7.05;;
10900;SDS011;5503;53.208;10.392;2022-11-20T10:07:30;11.65;;;5.32;;
10900;SDS011;5503;53.208;10.392;2022-11-20T10:10:03;15.05;;;7.40;;
10900;SDS011;5503;53.208;10.392;2022-11-20T10:12:34;14.33;;;8.03;;
10900;SDS011;5503;53.208;10.392;2022-11-20T10:15:19;14.35;;;6.88;;
10900;SDS011;5503;53.208;10.392;2022-11-20T10:18:09;12.80;;;7.05;;
10900;SDS011;5503;53.208;10.392;2022-11-20T10:20:47;14.80;;;7.90;;
10900;SDS011;5503;53.208;10.392;2022-11-20T10:23:25;12.32;;;7.00;;
10900;SDS011;5503;53.208;10.392;2022-11-20T10:26:01;12.93;;;7.50;;
10900;SDS011;5503;53.208;10.392;2022-11-20T10:28:33;16.85;;;7.93;;
10900;SDS011;5503;53.208;10.392;2022-11-20T10:31:12;15.68;;;8.15;;
10900;SDS011;5503;53.208;10.392;2022-11-20T10:33:57;12.13;;;6.68;;
10900;SDS011;5503;53.208;10.392;2022-11-20T10:36:29;14.32;;;6.22;;
10900;SDS011;5503;53.208;10.392;2022-11-20T10:39:04;15.00;;;7.63;;
10900;SDS011;5503;53.208;10.392;2022-11-20T10:41:41;13.50;;;7.60;;
10900;SDS011;5503;53.208;10.392;2022-11-20T10:44:12;13.10;;;8.18;;
10900;SDS011;5503;53.208;10.392;2022-11-20T10:47:19;13.15;;;7.15;;
10900;SDS011;5503;53.208;10.392;2022-11-20T10:49:54;13.35;;;7.38;;
10900;SDS011;5503;53.208;10.392;2022-11-20T10:52:25;12.23;;;6.20;;
10900;SDS011;5503;53.208;10.392;2022-11-20T10:55:02;11.75;;;6.70;;
10900;SDS011;5503;53.208;10.392;2022-11-20T10:57:44;14.30;;;7.60;;
10900;SDS011;5503;53.208;10.392;2022-11-20T11:00:18;14.13;;;7.38;;
10900;SDS011;5503;53.208;10.392;2022-11-20T11:02:52;14.32;;;7.97;;
10900;SDS011;5503;53.208;10.392;2022-11-20T11:05:36;14.40;;;8.37;;
10900;SDS011;5503;53.208;10.392;2022-11-20T11:08:12;14.02;;;7.03;;
10900;SDS011;5503;53.208;10.392;2022-11-20T11:10:43;13.32;;;7.53;;
10900;SDS011;5503;53.208;10.392;2022-11-20T11:13:20;13.93;;;7.45;;
10900;SDS011;5503;53.208;10.392;2022-11-20T11:15:48;13.05;;;7.45;;
10900;SDS011;5503;53.208;10.392;2022-11-20T11:18:22;12.90;;;6.33;;
10900;SDS011;5503;53.208;10.392;2022-11-20T11:20:53;14.13;;;7.70;;
10900;SDS011;5503;53.208;10.392;2022-11-20T11:23:29;13.77;;;7.85;;
10900;SDS011;5503;53.208;10.392;2022-11-20T11:25:59;13.98;;;7.80;;
10900;SDS011;5503;53.208;10.392;2022-11-20T11:28:27;10.57;;;6.07;;
10900;SDS011;5503;53.208;10.392;2022-11-20T11:30:55;13.03;;;6.57;;
10900;SDS011;5503;53.208;10.392;2022-11-20T11:33:23;12.32;;;6.78;;
10900;SDS011;5503;53.208;10.392;2022-11-20T11:35:53;13.10;;;6.85;;
10900;SDS011;5503;53.208;10.392;2022-11-20T11:38:27;12.65;;;6.00;;
10900;SDS011;5503;53.208;10.392;2022-11-20T11:40:57;10.82;;;5.93;;
10900;SDS011;5503;53.208;10.392;2022-11-20T11:43:25;11.77;;;6.40;;
10900;SDS011;5503;53.208;10.392;2022-11-20T11:46:23;14.73;;;7.35;;
10900;SDS011;5503;53.208;10.392;2022-11-20T11:48:57;12.15;;;6.60;;
10900;SDS011;5503;53.208;10.392;2022-11-20T11:51:31;12.35;;;5.65;;
10900;SDS011;5503;53.208;10.392;2022-11-20T11:54:05;12.52;;;6.10;;
10900;SDS011;5503;53.208;10.392;2022-11-20T11:56:41;13.50;;;5.77;;
10900;SDS011;5503;53.208;10.392;2022-11-20T11:59:11;10.43;;;5.70;;
10900;SDS011;5503;53.208;10.392;2022-11-20T12:01:43;12.65;;;7.10;;
10900;SDS011;5503;53.208;10.392;2022-11-20T12:04:14;12.35;;;6.40;;
10900;SDS011;5503;53.208;10.392;2022-11-20T12:06:47;9.85;;;5.60;;
10900;SDS011;5503;53.208;10.392;2022-11-20T12:09:20;8.80;;;5.07;;
10900;SDS011;5503;53.208;10.392;2022-11-20T12:11:51;12.38;;;5.28;;
10900;SDS011;5503;53.208;10.392;2022-11-20T12:14:24;8.48;;;4.90;;
10900;SDS011;5503;53.208;10.392;2022-11-20T12:16:56;9.95;;;5.57;;
10900;SDS011;5503;53.208;10.392;2022-11-20T12:19:24;10.48;;;5.47;;
10900;SDS011;5503;53.208;10.392;2022-11-20T12:21:55;11.07;;;5.20;;
10900;SDS011;5503;53.208;10.392;2022-11-20T12:24:45;11.43;;;6.10;;
10900;SDS011;5503;53.208;10.392;2022-11-20T12:27:43;14.60;;;6.25;;
10900;SDS011;5503;53.208;10.392;2022-11-20T12:30:20;12.93;;;6.20;;
10900;SDS011;5503;53.208;10.392;2022-11-20T12:32:56;10.63;;;5.72;;
10900;SDS011;5503;53.208;10.392;2022-11-20T12:35:56;12.37;;;5.37;;
10900;SDS011;5503;53.208;10.392;2022-11-20T12:38:42;17.63;;;7.85;;
10900;SDS011;5503;53.208;10.392;2022-11-20T12:41:23;12.20;;;6.47;;
10900;SDS011;5503;53.208;10.392;2022-11-20T12:44:24;9.00;;;5.20;;
10900;SDS011;5503;53.208;10.392;2022-11-20T12:47:33;8.70;;;4.80;;
10900;SDS011;5503;53.208;10.392;2022-11-20T12:50:08;10.17;;;5.20;;
10900;SDS011;5503;53.208;10.392;2022-11-20T12:52:42;9.57;;;5.32;;
10900;SDS011;5503;53.208;10.392;2022-11-20T12:55:23;10.52;;;4.95;;
10900;SDS011;5503;53.208;10.392;2022-11-20T12:58:00;10.55;;;4.90;;
10900;SDS011;5503;53.208;10.392;2022-11-20T13:00:31;10.10;;;5.75;;
10900;SDS011;5503;53.208;10.392;2022-11-20T13:05:59;9.57;;;4.78;;
10900;SDS011;5503;53.208;10.392;2022-11-20T13:08:37;13.05;;;5.30;;
10900;SDS011;5503;53.208;10.392;2022-11-20T13:11:09;8.57;;;5.05;;
10900;SDS011;5503;53.208;10.392;2022-11-20T13:13:44;9.90;;;5.53;;
10900;SDS011;5503;53.208;10.392;2022-11-20T13:16:23;10.70;;;5.80;;
10900;SDS011;5503;53.208;10.392;2022-11-20T13:18:57;9.10;;;5.13;;
10900;SDS011;5503;53.208;10.392;2022-11-20T13:21:35;10.68;;;4.85;;
10900;SDS011;5503;53.208;10.392;2022-11-20T13:24:04;12.38;;;4.85;;
10900;SDS011;5503;53.208;10.392;2022-11-20T13:26:33;9.93;;;5.50;;
10900;SDS011;5503;53.208;10.392;2022-11-20T13:29:02;10.27;;;5.00;;
10900;SDS011;5503;53.208;10.392;2022-11-20T13:31:36;8.00;;;4.90;;
10900;SDS011;5503;53.208;10.392;2022-11-20T13:34:10;9.50;;;5.07;;
10900;SDS011;5503;53.208;10.392;2022-11-20T13:36:48;9.27;;;5.38;;
10900;SDS011;5503;53.208;10.392;2022-11-20T13:39:23;8.80;;;5.05;;
10900;SDS011;5503;53.208;10.392;2022-11-20T13:41:55;8.17;;;4.63;;
10900;SDS011;5503;53.208;10.392;2022-11-20T13:44:24;8.52;;;5.22;;
10900;SDS011;5503;53.208;10.392;2022-11-20T13:46:55;10.18;;;5.40;;
10900;SDS011;5503;53.208;10.392;2022-11-20T13:49:23;12.02;;;5.18;;
10900;SDS011;5503;53.208;10.392;2022-11-20T13:51:55;7.32;;;4.53;;
10900;SDS011;5503;53.208;10.392;2022-11-20T13:54:43;8.07;;;4.90;;
10900;SDS011;5503;53.208;10.392;2022-11-20T13:57:30;9.13;;;5.10;;
10900;SDS011;5503;53.208;10.392;2022-11-20T14:00:09;9.15;;;4.85;;
10900;SDS011;5503;53.208;10.392;2022-11-20T14:02:39;9.23;;;4.60;;
10900;SDS011;5503;53.208;10.392;2022-11-20T14:05:11;7.32;;;4.15;;
10900;SDS011;5503;53.208;10.392;2022-11-20T14:07:45;7.47;;;4.47;;
10900;SDS011;5503;53.208;10.392;2022-11-20T14:10:19;7.10;;;4.45;;
10900;SDS011;5503;53.208;10.392;2022-11-20T14:12:49;11.30;;;5.47;;
10900;SDS011;5503;53.208;10.392;2022-11-20T14:15:27;7.80;;;4.97;;
10900;SDS011;5503;53.208;10.392;2022-11-20T14:17:56;8.52;;;4.78;;
10900;SDS011;5503;53.208;10.392;2022-11-20T14:20:23;8.03;;;4.60;;
10900;SDS011;5503;53.208;10.392;2022-11-20T14:22:53;8.15;;;4.47;;
10900;SDS011;5503;53.208;10.392;2022-11-20T14:25:21;7.68;;;4.90;;
10900;SDS011;5503;53.208;10.392;2022-11-20T14:27:54;8.73;;;4.80;;
10900;SDS011;5503;53.208;10.392;2022-11-20T14:30:22;9.43;;;6.22;;
10900;SDS011;5503;53.208;10.392;2022-11-20T14:32:53;8.50;;;5.10;;
10900;SDS011;5503;53.208;10.392;2022-11-20T14:35:24;9.27;;;5.68;;
10900;SDS011;5503;53.208;10.392;2022-11-20T14:37:53;8.07;;;5.57;;
10900;SDS011;5503;53.208;10.392;2022-11-20T14:40:25;8.57;;;5.90;;
10900;SDS011;5503;53.208;10.392;2022-11-20T14:42:56;9.50;;;5.97;;
10900;SDS011;5503;53.208;10.392;2022-11-20T14:45:24;9.10;;;5.43;;
10900;SDS011;5503;53.208;10.392;2022-11-20T14:47:52;9.30;;;4.75;;
10900;SDS011;5503;53.208;10.392;2022-11-20T14:50:22;8.52;;;5.10;;
10900;SDS011;5503;53.208;10.392;2022-11-20T14:52:51;10.40;;;5.38;;
10900;SDS011;5503;53.208;10.392;2022-11-20T14:55:25;9.32;;;5.10;;
10900;SDS011;5503;53.208;10.392;2022-11-20T14:57:56;10.07;;;4.97;;
10900;SDS011;5503;53.208;10.392;2022-11-20T15:00:24;14.15;;;6.30;;
10900;SDS011;5503;53.208;10.392;2022-11-20T15:02:52;41.97;;;16.85;;